createdAt,value
2022-08-22T00:00:09.792Z,13072
2022-08-22T00:05:23.823Z,12917
2022-08-22T00:10:36.022Z,13067
2022-08-22T00:15:48.374Z,13040
2022-08-22T00:21:00.572Z,13026
2022-08-22T00:26:12.552Z,13060
2022-08-22T00:31:24.746Z,13029
2022-08-22T00:36:36.822Z,13012
2022-08-22T00:41:49.152Z,13013
2022-08-22T00:47:02.641Z,13011
2022-08-22T00:52:15.221Z,12959
2022-08-22T01:02:37.273Z,13048
2022-08-22T01:07:49.933Z,13002
2022-08-22T01:13:02.693Z,12903
2022-08-22T01:18:15.518Z,12929
2022-08-22T01:23:28.391Z,12925
2022-08-22T01:28:42.552Z,12939
2022-08-22T01:33:55.121Z,12901
2022-08-22T03:02:00.546Z,12905
2022-08-22T03:07:13.525Z,12944
2022-08-22T03:12:26.417Z,12911
2022-08-22T03:17:39.346Z,12923
2022-08-22T03:22:52.295Z,12938
2022-08-22T03:28:05.245Z,12893
2022-08-22T03:48:50.685Z,12897
2022-08-22T05:01:23.301Z,12903
2022-08-22T05:48:02.802Z,12913
2022-08-22T06:08:48.533Z,12888
2022-08-22T06:24:22.231Z,13053
2022-08-22T06:29:34.511Z,13128
2022-08-22T06:34:46.850Z,13071
2022-08-22T06:39:59.277Z,13264
2022-08-22T06:45:11.931Z,13168
2022-08-22T06:50:24.101Z,13328
2022-08-22T06:55:36.362Z,13341
2022-08-22T07:01:12.647Z,13347
2022-08-22T07:06:21.267Z,13232
2022-08-22T07:11:33.851Z,13387
2022-08-22T07:16:46.162Z,13315
2022-08-22T07:21:58.692Z,13415
2022-08-22T07:27:10.882Z,13305
2022-08-22T07:32:24.301Z,13429
2022-08-22T07:37:36.542Z,13316
2022-08-22T07:42:50.095Z,13487
2022-08-22T07:48:03.584Z,13356
2022-08-22T07:53:16.774Z,13391
2022-08-22T07:58:29.064Z,13331
2022-08-22T08:03:41.743Z,13500
2022-08-22T08:08:54.263Z,13477
2022-08-22T08:14:06.764Z,13460
2022-08-22T08:19:19.465Z,13438
2022-08-22T08:24:47.339Z,13455
2022-08-22T08:30:15.641Z,13492
2022-08-22T08:36:02.222Z,13487
2022-08-22T08:41:11.793Z,13498
2022-08-22T08:46:25.672Z,13400
2022-08-22T08:51:40.135Z,13292
2022-08-22T08:56:54.795Z,13364
2022-08-22T09:02:07.573Z,13481
2022-08-22T09:07:32.253Z,13395
2022-08-22T09:13:12.649Z,13489
2022-08-22T09:18:21.613Z,13364
2022-08-22T09:23:36.116Z,13378
2022-08-22T09:28:48.123Z,13519
2022-08-22T09:34:05.489Z,13334
2022-08-22T09:39:20.521Z,13407
2022-08-22T09:44:33.265Z,13441
2022-08-22T09:49:55.593Z,13514
2022-08-22T09:55:09.051Z,13444
2022-08-22T10:00:43.530Z,13323
2022-08-22T10:05:56.374Z,13424
2022-08-22T10:11:10.744Z,13277
2022-08-22T10:16:25.323Z,13521
2022-08-22T10:21:37.902Z,13316
2022-08-22T10:26:51.600Z,13321
2022-08-22T10:32:14.869Z,13308
2022-08-22T10:37:25.702Z,13412
2022-08-22T10:42:38.576Z,13234
2022-08-22T10:48:00.593Z,13411
2022-08-22T10:53:13.845Z,13343
2022-08-22T10:58:28.850Z,13369
2022-08-22T11:03:41.974Z,13285
2022-08-22T11:08:55.799Z,13362
2022-08-22T11:14:08.670Z,13318
2022-08-22T11:19:22.235Z,13422
2022-08-22T11:24:56.045Z,14355
2022-08-22T11:30:19.072Z,14805
2022-08-22T11:35:38.751Z,14481
2022-08-22T11:40:52.484Z,13605
2022-08-22T11:46:06.949Z,13162
2022-08-22T11:51:25.299Z,13528
2022-08-22T11:56:42.210Z,13278
2022-08-22T12:02:04.735Z,13837
2022-08-22T12:18:02.173Z,13989
2022-08-22T12:23:17.335Z,13674
2022-08-22T12:28:51.844Z,13552
2022-08-22T12:44:25.761Z,13622
2022-08-22T12:49:38.405Z,13495
2022-08-22T12:54:51.172Z,13988
2022-08-22T13:05:20.248Z,13143
2022-08-22T13:15:54.041Z,13100
2022-08-22T13:21:05.690Z,13042
2022-08-22T13:31:30.381Z,13072
2022-08-22T13:36:52.257Z,13372
2022-08-22T13:42:02.581Z,13246
2022-08-22T13:47:39.992Z,13181
2022-08-22T13:58:11.705Z,13361
2022-08-22T14:03:28.820Z,12985
2022-08-22T14:08:46.101Z,13360
2022-08-22T14:14:01.044Z,12889
2022-08-22T14:19:13.728Z,13641
2022-08-22T14:24:27.771Z,13500
2022-08-22T14:34:51.820Z,12973
2022-08-22T14:40:05.142Z,13009
2022-08-22T14:45:24.711Z,13512
2022-08-22T14:50:37.631Z,13174
2022-08-22T14:55:53.592Z,13232
2022-08-22T15:01:10.223Z,13077
2022-08-22T15:06:26.492Z,13249
2022-08-22T15:11:45.693Z,13300
2022-08-22T15:17:06.012Z,13228
2022-08-22T15:22:18.171Z,13114
2022-08-22T15:27:31.628Z,13028
2022-08-22T15:32:44.523Z,13043
2022-08-22T15:43:08.903Z,13277
2022-08-22T15:48:21.194Z,13074
2022-08-22T15:53:34.342Z,13157
2022-08-22T15:58:49.201Z,12889
2022-08-22T16:04:01.103Z,13121
2022-08-22T16:09:13.657Z,13303
2022-08-22T16:19:36.374Z,13127
2022-08-22T16:24:50.283Z,13139
2022-08-22T16:35:18.025Z,12949
2022-08-22T16:40:31.016Z,12907
2022-08-22T16:45:44.628Z,13005
2022-08-22T16:50:57.282Z,13144
2022-08-22T16:56:09.932Z,13225
2022-08-22T17:01:22.757Z,12992
2022-08-22T17:06:35.513Z,13036
2022-08-22T17:11:47.831Z,13110
2022-08-22T17:17:00.181Z,13205
2022-08-22T17:22:12.901Z,12971
2022-08-22T17:27:25.312Z,13164
2022-08-22T17:32:38.493Z,12989
2022-08-22T17:37:50.853Z,12946
2022-08-22T17:43:03.193Z,13011
2022-08-22T17:48:15.782Z,13050
2022-08-22T17:53:28.301Z,13162
2022-08-22T17:58:44.336Z,13024
2022-08-22T18:03:55.581Z,13027
2022-08-22T18:09:15.691Z,13041
2022-08-22T18:14:31.286Z,12969
2022-08-22T18:19:43.541Z,13029
2022-08-22T18:24:56.025Z,13119
2022-08-22T18:30:08.582Z,13053
2022-08-22T18:35:22.221Z,13050
2022-08-22T18:40:35.552Z,13020
2022-08-22T18:46:04.497Z,13059
2022-08-22T18:51:24.889Z,13034
2022-08-22T18:56:40.424Z,13027
2022-08-22T19:01:52.642Z,13083
2022-08-22T19:07:05.159Z,12980
2022-08-22T19:12:17.165Z,12945
2022-08-22T19:17:29.341Z,12954
2022-08-22T19:22:42.268Z,13071
2022-08-22T19:27:54.130Z,13004
2022-08-22T19:33:06.228Z,12909
2022-08-22T19:38:18.408Z,13051
2022-08-22T19:43:30.965Z,13007
2022-08-22T19:48:43.115Z,13011
2022-08-22T19:53:55.257Z,13083
2022-08-22T19:59:07.260Z,13069
2022-08-22T20:04:19.579Z,13012
2022-08-22T20:09:31.884Z,13036
2022-08-22T20:14:50.690Z,13043
2022-08-22T20:20:19.469Z,13039
2022-08-22T20:25:44.612Z,13035
2022-08-22T20:30:55.884Z,13033
2022-08-22T20:36:29.353Z,13064
2022-08-22T20:41:38.001Z,13054
2022-08-22T20:46:55.507Z,13042
2022-08-22T20:52:09.737Z,13023
2022-08-22T20:57:21.800Z,13084
2022-08-22T21:02:33.789Z,13045
2022-08-22T21:07:45.932Z,13075
2022-08-22T21:12:58.712Z,13119
2022-08-22T21:18:11.129Z,12994
2022-08-22T21:23:23.219Z,13194
2022-08-22T21:28:35.623Z,13112
2022-08-22T21:33:47.628Z,13091
2022-08-22T21:38:59.918Z,13086
2022-08-22T21:44:12.426Z,13071
2022-08-22T21:49:24.642Z,13150
2022-08-22T21:54:37.113Z,13108
2022-08-22T22:00:00.130Z,13115
2022-08-22T22:10:33.384Z,13005
2022-08-22T22:15:45.396Z,13144
2022-08-22T22:20:57.443Z,13012
2022-08-22T22:26:09.532Z,13101
2022-08-22T22:31:21.765Z,13101
2022-08-22T22:36:33.814Z,13068
2022-08-22T22:41:45.912Z,13111
2022-08-22T22:46:57.890Z,12992
2022-08-22T22:52:12.030Z,13131
2022-08-22T22:57:25.993Z,13101
2022-08-22T23:02:43.547Z,13092
2022-08-22T23:07:56.379Z,13075
2022-08-22T23:13:08.864Z,13093
2022-08-22T23:18:30.720Z,13059
2022-08-22T23:23:42.989Z,13070
2022-08-22T23:28:55.324Z,13083
2022-08-22T23:34:07.715Z,13052
2022-08-22T23:39:19.962Z,13123
2022-08-22T23:44:32.241Z,13027
2022-08-22T23:49:44.460Z,13088
2022-08-22T23:54:56.624Z,13050
